FLIGHT INFORMATION
United Airlines

UAL1629

At Arrival Gate

KSFO
 KDEN
DATE: 2019-12-11
GATE:  -
GATE DEPARTURE: 20:52
TAKEOFF: 21:04
DATE: 2019-12-11
GATE: B49
LANDING: 23:01
GATE ARRIVAL: 23:09
FLIGHT DATA
Crew: PETE LOCASCIO
Speed: 465 kts Altitude: 35000 ft
Stage Length: 838 nm
Route: 
Block Time: 2.3 Flight Time: 2
Fuel Used: 13151 LB
TRACK DATA
50000 FT1000 KTAltitudeSpeed
AIRCRAFT INFORMATION
Aircraft Type: B739ERSSW
Registration: N78448
SELCAL:  MSN/LN: 40003 / 3942
Operator: UNITED AIRLINES
Flights: 10 Block Time: 24 Flight Time: 20.6
Fuel Used: 135969 LB
  • DEPARTURE INFORMATION
    Date: 2019-12-11
    Airport: KSFO
    Gate:  -
    Gate Departure: 20:52
    Takeoff: 21:04
    ARRIVAL INFORMATION
    Date: 2019-12-11
    Airport: KDEN
    Gate: B49
    Landing: 23:01
    Gate Arrival: 23:09
  • FLIGHT DATA
    Crew: PETE LOCASCIO
    Speed: 465 kts Altitude: 35000 ft
    Stage Length: 452 nm
    Route: 
    Block Time: 2.3 Flight Time: 2
    Fuel Used: 13151 LB
  • AIRCRAFT INFORMATION
    Aircraft Type: B739ERSSW
    Registration: N78448
    SELCAL:  MSN/LN: 40003 / 3942
    Operator: United Airlines
    Flights: 10 Block Time: 24 Flight Time: 20.6
    Fuel Used: 135969 LB

DATALINK LOG | Newest first | Current as of: 2020-05-31 15:37:46
LABEL ID SEQUENCE CONTENT Dn/Up
QD105123:09 4.8▼ Dn
QC012023:01▼ Dn
2U3211KDEN 112153Z 36006KT 10SM SCT160 BKN220 05/M01 A2992 RMK AO2 SLP135 ACSL DSNT SW-NW T00501011▲ Up
2S3211KDEN▼ Dn
GA2543GATE B49▲ Up
GR2514KDEN --:-- DIPL/VIP NO▼ Dn
2U5508KDEN 112053Z 02007KT 9SM BKN160 BKN220 06/M01 A2994 RMK AO2 SLP134 T00611011 56034▲ Up
2S5508KDEN▼ Dn
QB055021:04▼ Dn
QA520620:52 18▼ Dn
A32857CLEARED TO KDEN VIA TRUKN2 SYRAH Q128 JSICA MLF J28 HVE WOLLF TELLR2. SQUAWK 6215.▲ Up
Q02747[LINK ACK]▲ Up
Q02831[LINK TEST]▼ Dn


AIRCRAFT HISTORY
FLIGHT DATE FLIGHT NUMBER ORIGIN DESTINATION ROUTE BLOCK TIME FLIGHT TIME FUEL USED (LB) PILOT
2020-02-17UAL519KPHX KLAX 1.20.97054Steven Perry
2020-01-23UAL5816CYYC KPHX 2.72.515272Pete Locascio
2020-01-19UAL6126KRNO CYYC 2.4213185Pete Locascio
2020-01-09UAL6520CYEG KRNO 2.52.214248Pete Locascio
2020-01-07UAL5829KIDA CYEG 2.21.711129Pete Locascio
2020-01-04UAL6123KIAH KIDA 3.5320126Pete Locascio
2020-01-02UAL1128KORD KIAH 32.616808Pete Locascio
2020-01-01UAL228KIAH KORD 2.41.912961Michael Roth
2019-12-14UAL519KDEN KIAH 1.91.712035Steven Perry
2019-12-11UAL1629KSFO KDEN 2.3213151Pete Locascio